WetterOnline ( https://www.wetteronline.de )

Wetter aktuell Bad Kissingen

Aktuelles Wetter: Bad Kissingen (266m)

6-stündlich | Neueste Meldungen
Ortszeit Temperatur Wetter
Mo, 03.10. 20:00 12.0° C bewölkt
Mo, 03.10. 14:00 13.7° C bedeckt
Mo, 03.10. 8:00 8.4° C wolkenlos
Mo, 03.10. 2:00 9.5° C wolkenlos
So, 02.10. 20:00 12.0° C wolkig
So, 02.10. 14:00 13.3° C bedeckt
So, 02.10. 8:00 12.0° C bedeckt
So, 02.10. 2:00 11.1° C Nebel
Ortszeit Temperatur Wetter
Mo, 03.10. 22:00 10.6° C bewölkt
Mo, 03.10. 21:50 10.6° C bewölkt
Mo, 03.10. 21:40 10.6° C bewölkt
Mo, 03.10. 21:30 10.4° C wolkig
Mo, 03.10. 21:20 10.4° C wolkig
Mo, 03.10. 21:10 11.2° C bewölkt
Mo, 03.10. 21:00 11.9° C bewölkt
Mo, 03.10. 20:30 11.8° C bedeckt
Mo, 03.10. 20:00 12.0° C bewölkt
Mo, 03.10. 19:30 12.6° C bedeckt
Mo, 03.10. 19:00 12.6° C bedeckt
Ortszeit Relative Feuchte Sichtweite
Mo, 03.10. 20:00 80% 60 km
Mo, 03.10. 14:00 72% 55 km
Mo, 03.10. 8:00 94% 24 km
Mo, 03.10. 2:00 95% 28 km
So, 02.10. 20:00 92% 55 km
So, 02.10. 14:00 89% 60 km
So, 02.10. 8:00 92% 30 km
So, 02.10. 2:00 95% 35 km
Ortszeit Relative Feuchte Sichtweite
Mo, 03.10. 22:00 87% 50 km
Mo, 03.10. 21:50 87% -
Mo, 03.10. 21:40 87% -
Mo, 03.10. 21:30 89% 45 km
Mo, 03.10. 21:20 89% -
Mo, 03.10. 21:10 85% -
Mo, 03.10. 21:00 79% 50 km
Mo, 03.10. 20:30 81% 45 km
Mo, 03.10. 20:00 80% 60 km
Mo, 03.10. 19:30 76% 60 km
Mo, 03.10. 19:00 80% 65 km
Ortszeit Niederschlagsmenge Niederschlagsart
Mo, 03.10. 20:00 0.0 l/m2 in 12 Std. -
Mo, 03.10. 14:00 0.0 l/m2 in 6 Std. -
Mo, 03.10. 8:00 0.1 l/m2 in 12 Std. -
Mo, 03.10. 2:00 0.0 l/m2 in 6 Std. -
So, 02.10. 20:00 1 l/m2 in 12 Std. Regen
So, 02.10. 14:00 0.1 l/m2 in 6 Std. Regen
So, 02.10. 8:00 3 l/m2 in 12 Std. Regen
So, 02.10. 2:00 3 l/m2 in 6 Std. Regen
Ortszeit Niederschlagsmenge Niederschlagsart
Mo, 03.10. 22:00 0.0 l/m2 in 1 Std. -
Mo, 03.10. 21:50 keine Meldung -
Mo, 03.10. 21:40 keine Meldung -
Mo, 03.10. 21:30 0.0 l/m2 in 1 Std. -
Mo, 03.10. 21:20 keine Meldung -
Mo, 03.10. 21:10 keine Meldung -
Mo, 03.10. 21:00 0.0 l/m2 in 1 Std. -
Mo, 03.10. 20:30 0.0 l/m2 in 1 Std. -
Mo, 03.10. 20:00 0.0 l/m2 in 1 Std. -
Mo, 03.10. 19:30 0.0 l/m2 in 1 Std. -
Mo, 03.10. 19:00 0.0 l/m2 in 1 Std. -
Ortszeit Stärke Spitze Richtung
km/h Bft. km/h Grad Sektor
Mo, 03.10. 20:00 4 1 22 260° W
Mo, 03.10. 14:00 9 2 20 310° NW
Mo, 03.10. 8:00 6 1 11 220° SW
Mo, 03.10. 2:00 4 1 29 210° SW
So, 02.10. 20:00 7 2 28 270° W
So, 02.10. 14:00 11 2 32 250° W
So, 02.10. 8:00 18 3 25 190° S
So, 02.10. 2:00 11 2 25 240° SW
Ortszeit Stärke Spitze Richtung
km/h Bft. km/h Grad Sektor
Mo, 03.10. 22:00 4 1 11 190° S
Mo, 03.10. 21:50 4 1 - 190° S
Mo, 03.10. 21:40 7 2 - 200° S
Mo, 03.10. 21:30 7 2 11 210° SW
Mo, 03.10. 21:20 7 2 - 210° SW
Mo, 03.10. 21:10 6 1 - 210° SW
Mo, 03.10. 21:00 6 1 7 230° SW
Mo, 03.10. 20:30 4 1 7 200° S
Mo, 03.10. 20:00 4 1 11 260° W
Mo, 03.10. 19:30 4 1 11 20° N
Mo, 03.10. 19:00 4 1 11 50° NO
Ortszeit Untergrenze Bedeckung Gattung
total tief tief mittel hoch
Mo, 03.10. 20:00 1500 m 8/8 7/8 - - -
Mo, 03.10. 14:00 1080 m 8/8 8/8 - - -
Mo, 03.10. 8:00 - 0/8 0/8 - - -
Mo, 03.10. 2:00 - 0/8 0/8 - - -
So, 02.10. 20:00 7200 m 8/8 0/8 - - -
So, 02.10. 14:00 360 m 8/8 8/8 - - -
So, 02.10. 8:00 510 m 8/8 8/8 - - -
So, 02.10. 2:00 450 m 5/8 5/8 - - -
Ortszeit Bedeckungsgrad in Achtel und Wolkenuntergrenze
Mo, 03.10. 22:00 7(1470m) 7(8100m)
Mo, 03.10. 21:50 7(1470m) 7(8100m)
Mo, 03.10. 21:40 7
Mo, 03.10. 21:30 6(1500m) 6(9000m)
Mo, 03.10. 21:20 6(1500m) 6(9000m)
Mo, 03.10. 21:10 7
Mo, 03.10. 21:00 7(1500m) 8(7500m) 8(8100m)
Mo, 03.10. 20:30 8(1500m) 8(8100m)
Mo, 03.10. 20:00 7(1500m) 8(7800m) 8(9000m)
Mo, 03.10. 19:30 8(1500m)
Mo, 03.10. 19:00 8(1500m)
Ortszeit Luftdruck NN (hPa) Tendenz (hPa in 3 Std.)
Mo, 03.10. 20:00 1026 - 0,6
Mo, 03.10. 14:00 1027 - 0,1
Mo, 03.10. 8:00 1027 + 0,8
Mo, 03.10. 2:00 1024 + 1,6
So, 02.10. 20:00 1020 + 1,8
So, 02.10. 14:00 1018 + 0,1
So, 02.10. 8:00 1018 + 0,1
So, 02.10. 2:00 1018 + 2,5
Ortszeit Luftdruck NN (hPa) Tendenz (hPa in 3 Std.)
Mo, 03.10. 22:00 1027 + 0,1
Mo, 03.10. 21:50 1027 keine Meldung
Mo, 03.10. 21:40 1026 keine Meldung
Mo, 03.10. 21:30 1026 - 0,2
Mo, 03.10. 21:20 1026 keine Meldung
Mo, 03.10. 21:10 1026 keine Meldung
Mo, 03.10. 21:00 1026 - 0,4
Mo, 03.10. 20:30 1026 - 0,5
Mo, 03.10. 20:00 1026 - 0,6
Mo, 03.10. 19:30 1026 - 0,5
Mo, 03.10. 19:00 1026 - 0,5
Ortszeit Schneehöhe (cm)
Mo, 03.10. 20:00 0
Mo, 03.10. 14:00 0
Mo, 03.10. 8:00 0
Mo, 03.10. 2:00 0
So, 02.10. 20:00 0
So, 02.10. 14:00 0
So, 02.10. 8:00 0
So, 02.10. 2:00 0
Ortszeit Schneehöhe (cm)
Mo, 03.10. 22:00 0
Mo, 03.10. 21:50 0
Mo, 03.10. 21:40 0
Mo, 03.10. 21:30 0
Mo, 03.10. 21:20 0
Mo, 03.10. 21:10 0
Mo, 03.10. 21:00 0
Mo, 03.10. 20:30 0
Mo, 03.10. 20:00 0
Mo, 03.10. 19:30 0
Mo, 03.10. 19:00 0
Link zu dieser Seite / Seite empfehlen

Das Wetter in ...